createdAt,value
2018-06-05T00:03:24.819Z,76.00
2018-06-05T00:07:28.206Z,76.10
2018-06-05T00:11:31.564Z,75.80
2018-06-05T00:15:34.918Z,75.90
2018-06-05T00:19:38.274Z,76.10
2018-06-05T00:23:41.616Z,76.90
2018-06-05T00:27:44.955Z,76.70
2018-06-05T00:31:48.302Z,75.90
2018-06-05T00:35:51.665Z,76.10
2018-06-05T00:39:55.034Z,76.40
2018-06-05T00:43:58.375Z,76.40
2018-06-05T00:48:01.766Z,75.90
2018-06-05T00:52:08.996Z,75.80
2018-06-05T00:56:12.375Z,76.50
2018-06-05T01:00:15.723Z,76.30
2018-06-05T01:04:19.046Z,78.50
2018-06-05T01:08:23.019Z,76.10
2018-06-05T01:12:26.376Z,76.90
2018-06-05T01:16:29.718Z,76.20
2018-06-05T01:20:33.171Z,76.00
2018-06-05T01:24:36.497Z,76.70
2018-06-05T01:28:39.850Z,76.30
2018-06-05T01:32:43.189Z,76.50
2018-06-05T01:36:46.514Z,77.20
2018-06-05T01:40:49.870Z,76.90
2018-06-05T01:44:53.235Z,76.60
2018-06-05T01:48:56.748Z,76.80
2018-06-05T01:53:00.102Z,76.80
2018-06-05T01:57:03.507Z,76.30
2018-06-05T02:01:06.862Z,76.30
2018-06-05T02:05:10.219Z,76.60
2018-06-05T02:09:14.425Z,76.20
2018-06-05T02:13:17.812Z,76.40
2018-06-05T02:17:21.160Z,76.70
2018-06-05T02:21:24.542Z,76.80
2018-06-05T02:25:27.891Z,77.40
2018-06-05T02:29:31.210Z,76.70
2018-06-05T02:33:34.539Z,76.30
2018-06-05T02:37:37.911Z,76.60
2018-06-05T02:41:41.386Z,76.30
2018-06-05T02:45:44.762Z,76.30
2018-06-05T02:49:48.107Z,76.60
2018-06-05T02:53:51.467Z,76.10
2018-06-05T02:57:54.821Z,76.90
2018-06-05T03:01:58.319Z,75.90
2018-06-05T03:06:01.679Z,76.30
2018-06-05T03:10:05.063Z,75.80
2018-06-05T03:14:08.430Z,76.30
2018-06-05T03:18:11.799Z,76.90
2018-06-05T03:22:15.160Z,76.60
2018-06-05T03:26:18.557Z,76.50
2018-06-05T03:30:21.886Z,77.00
2018-06-05T03:34:25.273Z,77.00
2018-06-05T03:38:28.655Z,75.90
2018-06-05T03:46:35.074Z,76.90
2018-06-05T03:50:38.419Z,76.50
2018-06-05T03:54:42.385Z,76.50
2018-06-05T03:58:45.764Z,76.30
2018-06-05T04:02:49.115Z,76.80
2018-06-05T04:06:52.490Z,76.40
2018-06-05T04:10:55.863Z,76.50
2018-06-05T04:14:59.240Z,76.50
2018-06-05T04:19:02.593Z,76.40
2018-06-05T04:23:05.968Z,76.50
2018-06-05T04:27:09.354Z,77.00
2018-06-05T04:31:12.695Z,76.60
2018-06-05T04:35:16.055Z,77.00
2018-06-05T04:39:19.402Z,76.70
2018-06-05T04:43:22.748Z,76.80
2018-06-05T04:47:26.098Z,76.70
2018-06-05T04:51:29.433Z,76.50
2018-06-05T04:55:32.786Z,76.80
2018-06-05T04:59:36.130Z,76.60
2018-06-05T05:03:39.519Z,77.10
2018-06-05T05:07:42.904Z,76.90
2018-06-05T05:11:46.347Z,76.50
2018-06-05T05:15:49.846Z,76.80
2018-06-05T05:19:53.210Z,76.50
2018-06-05T05:23:56.601Z,77.00
2018-06-05T05:27:59.947Z,76.80
2018-06-05T05:32:03.308Z,76.60
2018-06-05T05:40:09.805Z,77.60
2018-06-05T05:44:13.142Z,76.50
2018-06-05T05:48:16.519Z,76.90
2018-06-05T05:52:19.943Z,78.30
2018-06-05T05:56:23.338Z,77.20
2018-06-05T06:00:26.675Z,78.50
2018-06-05T06:04:30.032Z,76.60
2018-06-05T06:08:33.375Z,76.70
2018-06-05T06:12:36.744Z,78.70
2018-06-05T06:16:40.071Z,76.70
2018-06-05T06:20:43.418Z,76.50
2018-06-05T06:24:46.777Z,76.90
2018-06-05T06:28:50.093Z,77.00
2018-06-05T06:32:53.422Z,77.10
2018-06-05T06:36:56.742Z,77.00
2018-06-05T06:41:00.110Z,76.70
2018-06-05T06:45:03.471Z,77.90
2018-06-05T06:49:06.816Z,76.50
2018-06-05T06:53:10.160Z,76.80
2018-06-05T06:57:13.472Z,77.40
2018-06-05T07:05:19.936Z,76.70
2018-06-05T07:09:23.283Z,77.10
2018-06-05T07:13:26.655Z,76.70
2018-06-05T07:17:29.979Z,77.30
2018-06-05T07:21:33.315Z,76.70
2018-06-05T07:25:36.676Z,77.40
2018-06-05T07:29:40.028Z,76.60
2018-06-05T07:33:43.362Z,77.60
2018-06-05T07:37:46.663Z,76.70
2018-06-05T07:41:50.036Z,77.60
2018-06-05T07:45:53.399Z,77.90
2018-06-05T07:49:56.788Z,76.80
2018-06-05T07:54:00.120Z,77.30
2018-06-05T07:58:03.447Z,77.00
2018-06-05T08:02:06.831Z,77.10
2018-06-05T08:06:10.160Z,77.10
2018-06-05T08:10:13.511Z,77.50
2018-06-05T08:14:16.857Z,77.90
2018-06-05T08:18:20.201Z,77.70
2018-06-05T08:22:24.077Z,77.60
2018-06-05T08:26:39.116Z,77.30
2018-06-05T08:30:42.455Z,77.90
2018-06-05T08:34:45.799Z,78.90
2018-06-05T08:38:49.150Z,77.80
2018-06-05T08:42:52.478Z,77.70
2018-06-05T08:46:55.815Z,77.90
2018-06-05T08:50:59.237Z,77.80
2018-06-05T08:55:02.566Z,77.60
2018-06-05T08:59:05.943Z,78.10
2018-06-05T09:03:09.281Z,77.90
2018-06-05T09:07:12.616Z,77.90
2018-06-05T09:11:16.040Z,77.80
2018-06-05T09:15:19.415Z,77.90
2018-06-05T09:19:22.742Z,77.60
2018-06-05T09:23:26.101Z,77.10
2018-06-05T09:27:29.440Z,77.20
2018-06-05T09:31:32.904Z,77.30
2018-06-05T09:35:36.230Z,77.60
2018-06-05T09:39:39.574Z,78.50
2018-06-05T09:43:42.900Z,77.60
2018-06-05T09:47:46.232Z,77.40
2018-06-05T09:51:49.582Z,77.50
2018-06-05T09:55:52.948Z,77.70
2018-06-05T09:59:56.294Z,77.60
2018-06-05T10:03:59.695Z,77.60
2018-06-05T10:08:03.010Z,78.30
2018-06-05T10:12:06.372Z,77.90
2018-06-05T10:16:09.724Z,77.60
2018-06-05T10:20:13.147Z,77.50
2018-06-05T10:24:16.470Z,77.10
2018-06-05T10:28:19.851Z,77.40
2018-06-05T10:32:23.259Z,77.90
2018-06-05T10:36:26.611Z,77.20
2018-06-05T10:40:29.951Z,78.20
2018-06-05T10:48:36.367Z,78.20
2018-06-05T10:52:39.696Z,77.80
2018-06-05T10:56:43.023Z,77.70
2018-06-05T11:00:46.381Z,77.40
2018-06-05T11:08:52.762Z,78.00
2018-06-05T11:12:56.116Z,77.30
2018-06-05T11:16:59.479Z,77.60
2018-06-05T11:21:02.810Z,77.50
2018-06-05T11:25:06.161Z,77.20
2018-06-05T11:29:09.498Z,77.00
2018-06-05T11:33:12.842Z,76.80
2018-06-05T11:37:16.191Z,77.00
2018-06-05T11:41:19.539Z,77.00
2018-06-05T11:45:22.876Z,77.00
2018-06-05T11:49:26.278Z,76.90
2018-06-05T11:53:29.635Z,76.90
2018-06-05T11:57:32.992Z,76.70
2018-06-05T12:01:36.340Z,76.50
2018-06-05T12:05:39.700Z,76.40
2018-06-05T12:09:43.060Z,76.30
2018-06-05T12:13:46.432Z,76.40
2018-06-05T12:17:49.836Z,76.30
2018-06-05T12:21:53.151Z,76.30
2018-06-05T12:25:56.483Z,76.30
2018-06-05T12:29:59.826Z,75.70
2018-06-05T12:34:03.183Z,76.20
2018-06-05T12:38:06.531Z,76.20
2018-06-05T12:42:09.871Z,76.30
2018-06-05T12:46:13.214Z,77.00
2018-06-05T12:50:16.559Z,76.20
2018-06-05T12:54:19.910Z,76.20
2018-06-05T12:58:23.252Z,77.10
2018-06-05T13:02:26.606Z,73.00
2018-06-05T13:06:29.971Z,77.10
2018-06-05T13:10:33.328Z,76.50
2018-06-05T13:14:36.700Z,76.90
2018-06-05T13:18:40.044Z,77.20
2018-06-05T13:22:43.518Z,77.40
2018-06-05T13:26:46.752Z,76.90
2018-06-05T13:30:50.120Z,76.20
2018-06-05T13:34:53.486Z,77.00
2018-06-05T13:38:56.862Z,77.20
2018-06-05T13:43:00.217Z,77.40
2018-06-05T13:47:03.539Z,77.50
2018-06-05T13:51:06.890Z,77.20
2018-06-05T13:55:10.248Z,76.10
2018-06-05T13:59:13.599Z,76.70
2018-06-05T14:03:16.972Z,75.20
2018-06-05T14:07:20.288Z,76.80
2018-06-05T14:11:23.626Z,76.50
2018-06-05T14:15:26.987Z,76.20
2018-06-05T14:19:50.457Z,72.20
2018-06-05T14:23:53.803Z,76.50
2018-06-05T14:27:57.134Z,75.30
2018-06-05T14:32:00.459Z,74.70
2018-06-05T14:36:03.804Z,72.90
2018-06-05T14:40:07.151Z,70.90
2018-06-05T14:44:10.523Z,76.30
2018-06-05T14:48:13.890Z,72.10
2018-06-05T14:52:17.213Z,76.30
2018-06-05T14:56:20.570Z,73.90
2018-06-05T15:00:23.923Z,76.40
2018-06-05T15:04:27.314Z,74.80
2018-06-05T15:08:30.663Z,71.50
2018-06-05T15:12:33.999Z,73.40
2018-06-05T15:16:37.322Z,74.80
2018-06-05T15:20:40.673Z,70.40
2018-06-05T15:24:44.014Z,75.00
2018-06-05T15:28:47.351Z,73.60
2018-06-05T15:32:50.681Z,74.90
2018-06-05T15:36:54.035Z,71.60
2018-06-05T15:40:57.375Z,74.00
2018-06-05T15:45:00.696Z,74.00
2018-06-05T15:49:04.027Z,72.50
2018-06-05T15:53:07.355Z,70.40
2018-06-05T15:57:10.687Z,73.20
2018-06-05T16:01:14.091Z,73.30
2018-06-05T16:05:18.073Z,70.70
2018-06-05T16:09:21.516Z,71.00
2018-06-05T16:13:24.863Z,68.90
2018-06-05T16:17:28.228Z,68.70
2018-06-05T16:21:31.660Z,71.70
2018-06-05T16:25:34.995Z,67.40
2018-06-05T16:29:38.359Z,69.80
2018-06-05T16:33:41.685Z,61.20
2018-06-05T16:37:45.038Z,72.60
2018-06-05T16:41:48.362Z,70.00
2018-06-05T16:45:51.720Z,67.40
2018-06-05T16:49:55.063Z,67.80
2018-06-05T16:53:58.397Z,70.80
2018-06-05T16:58:02.816Z,68.30
2018-06-05T17:02:06.255Z,71.60
2018-06-05T17:06:09.592Z,67.10
2018-06-05T17:10:12.958Z,69.70
2018-06-05T17:14:16.310Z,69.30
2018-06-05T17:18:19.682Z,69.40
2018-06-05T17:22:23.159Z,67.90
2018-06-05T17:26:26.615Z,59.10
2018-06-05T17:30:29.958Z,68.20
2018-06-05T17:34:33.274Z,69.10
2018-06-05T17:38:36.634Z,67.70
2018-06-05T17:42:40.002Z,69.20
2018-06-05T17:46:43.358Z,68.80
2018-06-05T17:50:46.688Z,67.70
2018-06-05T17:54:50.055Z,67.90
2018-06-05T17:58:53.423Z,69.40
2018-06-05T18:02:56.790Z,67.60
2018-06-05T18:07:00.147Z,68.50
2018-06-05T18:11:03.541Z,68.30
2018-06-05T18:15:06.924Z,68.20
2018-06-05T18:19:10.258Z,68.20
2018-06-05T18:23:13.614Z,69.40
2018-06-05T18:31:20.071Z,69.80
2018-06-05T18:35:23.423Z,69.50
2018-06-05T18:39:26.768Z,69.40
2018-06-05T18:43:30.128Z,69.60
2018-06-05T18:47:33.491Z,70.00
2018-06-05T18:51:36.823Z,69.40
2018-06-05T18:55:40.197Z,69.70
2018-06-05T18:59:43.906Z,70.10
2018-06-05T19:03:47.260Z,70.20
2018-06-05T19:07:50.639Z,70.30
2018-06-05T19:11:54.046Z,70.30
2018-06-05T19:15:57.419Z,70.40
2018-06-05T19:20:00.788Z,70.50
2018-06-05T19:24:05.407Z,70.80
2018-06-05T19:28:09.132Z,70.70
2018-06-05T19:32:12.467Z,70.80
2018-06-05T19:36:15.958Z,70.70
2018-06-05T19:40:19.325Z,71.10
2018-06-05T19:44:24.600Z,71.20
2018-06-05T19:48:28.081Z,71.00
2018-06-05T19:52:32.470Z,71.40
2018-06-05T19:56:35.921Z,71.50
2018-06-05T20:00:39.238Z,71.60
2018-06-05T20:04:42.567Z,71.80
2018-06-05T20:08:45.919Z,71.90
2018-06-05T20:12:49.307Z,71.90
2018-06-05T20:16:52.663Z,71.80
2018-06-05T20:20:55.999Z,72.00
2018-06-05T20:24:59.374Z,72.20
2018-06-05T20:29:02.716Z,72.20
2018-06-05T20:33:06.173Z,72.40
2018-06-05T20:37:09.543Z,72.40
2018-06-05T20:41:12.970Z,72.50
2018-06-05T20:45:16.327Z,72.80
2018-06-05T20:49:19.712Z,72.70
2018-06-05T20:53:23.067Z,72.80
2018-06-05T20:57:26.423Z,73.50
2018-06-05T21:01:29.757Z,73.20
2018-06-05T21:05:33.107Z,73.70
2018-06-05T21:13:39.589Z,73.00
2018-06-05T21:17:42.991Z,73.10
2018-06-05T21:21:46.375Z,73.40
2018-06-05T21:25:50.075Z,73.40
2018-06-05T21:29:53.513Z,73.30
2018-06-05T21:33:56.879Z,73.60
2018-06-05T21:38:00.283Z,73.60
2018-06-05T21:42:03.681Z,73.20
2018-06-05T21:46:07.099Z,73.40
2018-06-05T21:50:10.506Z,73.70
2018-06-05T21:54:13.913Z,73.70
2018-06-05T21:58:17.477Z,73.40
2018-06-05T22:06:23.948Z,73.70
2018-06-05T22:10:27.370Z,73.80
2018-06-05T22:14:30.816Z,74.10
2018-06-05T22:18:34.430Z,74.00
2018-06-05T22:22:37.839Z,73.70
2018-06-05T22:26:41.268Z,73.90
2018-06-05T22:30:44.934Z,73.80
2018-06-05T22:34:48.360Z,74.10
2018-06-05T22:38:51.732Z,74.70
2018-06-05T22:42:55.103Z,74.10
2018-06-05T22:46:58.461Z,73.90
2018-06-05T22:51:01.863Z,73.90
2018-06-05T22:55:05.715Z,74.70
2018-06-05T22:59:09.098Z,75.10
2018-06-05T23:03:12.523Z,74.20
2018-06-05T23:07:15.877Z,74.50
2018-06-05T23:11:19.287Z,74.50
2018-06-05T23:15:22.704Z,74.10
2018-06-05T23:19:26.063Z,73.90
2018-06-05T23:23:29.447Z,74.10
2018-06-05T23:27:32.795Z,74.30
2018-06-05T23:31:36.179Z,74.50
2018-06-05T23:35:39.568Z,74.40
2018-06-05T23:39:43.016Z,75.40
2018-06-05T23:43:46.394Z,74.90
2018-06-05T23:47:49.768Z,74.80
2018-06-05T23:51:57.407Z,74.70
2018-06-05T23:56:00.767Z,74.50
